sensor_id;sensor_type;location;lat;lon;timestamp;pressure;altitude;pressure_sealevel;temperature;humidity
6829;BME280;17930;48.592;8.868;2022-10-16T00:00:31;96624.75;;;13.86;100.00
6829;BME280;17930;48.592;8.868;2022-10-16T00:02:58;96616.59;;;13.74;100.00
6829;BME280;17930;48.592;8.868;2022-10-16T00:05:25;96625.19;;;13.66;100.00
6829;BME280;17930;48.592;8.868;2022-10-16T00:07:52;96620.59;;;13.58;100.00
6829;BME280;17930;48.592;8.868;2022-10-16T00:10:19;96631.38;;;13.57;100.00
6829;BME280;17930;48.592;8.868;2022-10-16T00:12:45;96645.16;;;13.62;100.00
6829;BME280;17930;48.592;8.868;2022-10-16T00:15:13;96647.50;;;13.64;100.00
6829;BME280;17930;48.592;8.868;2022-10-16T00:17:40;96645.94;;;13.63;100.00
6829;BME280;17930;48.592;8.868;2022-10-16T00:20:07;96643.22;;;13.54;100.00
6829;BME280;17930;48.592;8.868;2022-10-16T00:22:34;96640.91;;;13.53;100.00
6829;BME280;17930;48.592;8.868;2022-10-16T00:25:01;96642.38;;;13.45;100.00
6829;BME280;17930;48.592;8.868;2022-10-16T00:27:27;96627.81;;;13.39;100.00
6829;BME280;17930;48.592;8.868;2022-10-16T00:29:54;96625.59;;;13.46;100.00
6829;BME280;17930;48.592;8.868;2022-10-16T00:32:22;96629.63;;;13.39;100.00
6829;BME280;17930;48.592;8.868;2022-10-16T00:34:49;96626.66;;;13.32;100.00
6829;BME280;17930;48.592;8.868;2022-10-16T00:37:15;96629.28;;;13.32;100.00
6829;BME280;17930;48.592;8.868;2022-10-16T00:39:42;96619.28;;;13.34;100.00
6829;BME280;17930;48.592;8.868;2022-10-16T00:42:11;96625.56;;;13.33;100.00
6829;BME280;17930;48.592;8.868;2022-10-16T00:44:44;96626.38;;;13.33;100.00
6829;BME280;17930;48.592;8.868;2022-10-16T00:47:15;96622.66;;;13.34;100.00
6829;BME280;17930;48.592;8.868;2022-10-16T00:49:43;96628.88;;;13.38;100.00
6829;BME280;17930;48.592;8.868;2022-10-16T00:52:11;96620.84;;;13.35;100.00
6829;BME280;17930;48.592;8.868;2022-10-16T00:54:38;96629.47;;;13.35;100.00
6829;BME280;17930;48.592;8.868;2022-10-16T00:57:06;96628.00;;;13.30;100.00
6829;BME280;17930;48.592;8.868;2022-10-16T00:59:36;96632.75;;;13.28;100.00
6829;BME280;17930;48.592;8.868;2022-10-16T01:02:04;96640.72;;;13.23;100.00
6829;BME280;17930;48.592;8.868;2022-10-16T01:04:33;96651.09;;;13.28;100.00
6829;BME280;17930;48.592;8.868;2022-10-16T01:07:06;96646.34;;;13.30;100.00
6829;BME280;17930;48.592;8.868;2022-10-16T01:09:45;96647.50;;;13.24;100.00
6829;BME280;17930;48.592;8.868;2022-10-16T01:12:16;96653.13;;;13.17;100.00
6829;BME280;17930;48.592;8.868;2022-10-16T01:14:48;96644.97;;;13.19;100.00
6829;BME280;17930;48.592;8.868;2022-10-16T01:17:21;96632.94;;;13.18;100.00
6829;BME280;17930;48.592;8.868;2022-10-16T01:20:08;96631.88;;;13.19;100.00
6829;BME280;17930;48.592;8.868;2022-10-16T01:22:47;96636.53;;;13.22;100.00
6829;BME280;17930;48.592;8.868;2022-10-16T01:25:22;96639.94;;;13.22;100.00
6829;BME280;17930;48.592;8.868;2022-10-16T01:27:53;96636.25;;;13.23;100.00
6829;BME280;17930;48.592;8.868;2022-10-16T01:30:23;96637.97;;;13.28;100.00
6829;BME280;17930;48.592;8.868;2022-10-16T01:32:55;96647.31;;;13.33;100.00
6829;BME280;17930;48.592;8.868;2022-10-16T01:35:26;96647.50;;;13.37;100.00
6829;BME280;17930;48.592;8.868;2022-10-16T01:37:59;96647.50;;;13.37;100.00
6829;BME280;17930;48.592;8.868;2022-10-16T01:40:29;96642.66;;;13.44;100.00
6829;BME280;17930;48.592;8.868;2022-10-16T01:43:02;96641.31;;;13.46;100.00
6829;BME280;17930;48.592;8.868;2022-10-16T01:45:31;96628.47;;;13.58;100.00
6829;BME280;17930;48.592;8.868;2022-10-16T01:48:00;96635.28;;;13.59;100.00
6829;BME280;17930;48.592;8.868;2022-10-16T01:50:31;96629.16;;;13.64;100.00
6829;BME280;17930;48.592;8.868;2022-10-16T01:53:02;96627.88;;;13.61;100.00
6829;BME280;17930;48.592;8.868;2022-10-16T01:55:32;96625.75;;;13.63;100.00
6829;BME280;17930;48.592;8.868;2022-10-16T01:58:03;96634.56;;;13.67;100.00
6829;BME280;17930;48.592;8.868;2022-10-16T02:00:31;96637.19;;;13.67;100.00
6829;BME280;17930;48.592;8.868;2022-10-16T02:02:59;96634.66;;;13.76;100.00
6829;BME280;17930;48.592;8.868;2022-10-16T02:05:31;96636.97;;;13.77;100.00
6829;BME280;17930;48.592;8.868;2022-10-16T02:08:00;96628.81;;;13.92;100.00
6829;BME280;17930;48.592;8.868;2022-10-16T02:10:27;96634.66;;;13.89;100.00
6829;BME280;17930;48.592;8.868;2022-10-16T02:13:00;96644.63;;;13.87;100.00
6829;BME280;17930;48.592;8.868;2022-10-16T02:15:31;96636.13;;;13.82;100.00
6829;BME280;17930;48.592;8.868;2022-10-16T02:17:58;96637.19;;;13.81;100.00
6829;BME280;17930;48.592;8.868;2022-10-16T02:20:27;96643.91;;;13.73;100.00
6829;BME280;17930;48.592;8.868;2022-10-16T02:22:56;96621.19;;;13.69;100.00
6829;BME280;17930;48.592;8.868;2022-10-16T02:25:27;96620.50;;;13.77;100.00
6829;BME280;17930;48.592;8.868;2022-10-16T02:28:01;96638.75;;;13.68;100.00
6829;BME280;17930;48.592;8.868;2022-10-16T02:30:32;96627.09;;;13.74;100.00
6829;BME280;17930;48.592;8.868;2022-10-16T02:33:03;96629.63;;;13.79;100.00
6829;BME280;17930;48.592;8.868;2022-10-16T02:35:32;96633.81;;;13.80;100.00
6829;BME280;17930;48.592;8.868;2022-10-16T02:37:59;96632.50;;;13.91;100.00
6829;BME280;17930;48.592;8.868;2022-10-16T02:40:26;96624.16;;;13.89;100.00
6829;BME280;17930;48.592;8.868;2022-10-16T02:42:54;96628.97;;;13.95;100.00
6829;BME280;17930;48.592;8.868;2022-10-16T02:45:22;96631.06;;;13.85;100.00
6829;BME280;17930;48.592;8.868;2022-10-16T02:47:50;96626.88;;;13.84;100.00
6829;BME280;17930;48.592;8.868;2022-10-16T02:50:17;96626.25;;;14.00;100.00
6829;BME280;17930;48.592;8.868;2022-10-16T02:52:43;96637.66;;;13.96;100.00
6829;BME280;17930;48.592;8.868;2022-10-16T02:55:10;96637.47;;;14.06;100.00
6829;BME280;17930;48.592;8.868;2022-10-16T02:57:37;96638.13;;;13.98;100.00
6829;BME280;17930;48.592;8.868;2022-10-16T03:00:06;96639.50;;;13.82;100.00
6829;BME280;17930;48.592;8.868;2022-10-16T03:02:33;96637.19;;;13.67;100.00
6829;BME280;17930;48.592;8.868;2022-10-16T03:05:01;96637.31;;;13.62;100.00
6829;BME280;17930;48.592;8.868;2022-10-16T03:07:28;96630.22;;;13.76;100.00
6829;BME280;17930;48.592;8.868;2022-10-16T03:09:54;96636.75;;;14.00;100.00
6829;BME280;17930;48.592;8.868;2022-10-16T03:12:22;96628.75;;;14.05;100.00
6829;BME280;17930;48.592;8.868;2022-10-16T03:14:48;96624.34;;;14.28;100.00
6829;BME280;17930;48.592;8.868;2022-10-16T03:17:15;96630.09;;;14.30;100.00
6829;BME280;17930;48.592;8.868;2022-10-16T03:19:42;96631.63;;;14.31;100.00
6829;BME280;17930;48.592;8.868;2022-10-16T03:22:10;96624.13;;;14.16;100.00
6829;BME280;17930;48.592;8.868;2022-10-16T03:24:37;96628.78;;;14.19;100.00
6829;BME280;17930;48.592;8.868;2022-10-16T03:27:04;96626.81;;;14.24;100.00
6829;BME280;17930;48.592;8.868;2022-10-16T03:29:31;96628.88;;;14.14;100.00
6829;BME280;17930;48.592;8.868;2022-10-16T03:31:58;96624.47;;;14.23;100.00
6829;BME280;17930;48.592;8.868;2022-10-16T03:34:25;96630.09;;;14.30;100.00
6829;BME280;17930;48.592;8.868;2022-10-16T03:36:52;96635.00;;;14.09;100.00
6829;BME280;17930;48.592;8.868;2022-10-16T03:39:20;96650.16;;;13.99;100.00
6829;BME280;17930;48.592;8.868;2022-10-16T03:41:46;96638.34;;;13.88;100.00
6829;BME280;17930;48.592;8.868;2022-10-16T03:44:16;96649.03;;;13.78;100.00
6829;BME280;17930;48.592;8.868;2022-10-16T03:46:43;96640.31;;;13.69;100.00
6829;BME280;17930;48.592;8.868;2022-10-16T03:49:09;96647.50;;;13.64;100.00
6829;BME280;17930;48.592;8.868;2022-10-16T03:51:36;96643.03;;;13.78;100.00
6829;BME280;17930;48.592;8.868;2022-10-16T03:54:03;96639.09;;;14.02;100.00
6829;BME280;17930;48.592;8.868;2022-10-16T03:56:31;96635.88;;;14.18;100.00
6829;BME280;17930;48.592;8.868;2022-10-16T03:58:58;96643.53;;;14.15;100.00
6829;BME280;17930;48.592;8.868;2022-10-16T04:01:24;96643.16;;;14.08;100.00
6829;BME280;17930;48.592;8.868;2022-10-16T04:03:51;96637.94;;;14.08;100.00
6829;BME280;17930;48.592;8.868;2022-10-16T04:06:18;96640.44;;;14.13;100.00
6829;BME280;17930;48.592;8.868;2022-10-16T04:08:45;96642.56;;;14.11;100.00
6829;BME280;17930;48.592;8.868;2022-10-16T04:11:11;96642.50;;;14.37;100.00
6829;BME280;17930;48.592;8.868;2022-10-16T04:13:39;96647.13;;;14.40;100.00
6829;BME280;17930;48.592;8.868;2022-10-16T04:16:06;96643.00;;;14.39;100.00
6829;BME280;17930;48.592;8.868;2022-10-16T04:18:33;96633.16;;;14.45;100.00
6829;BME280;17930;48.592;8.868;2022-10-16T04:21:02;96634.75;;;14.76;100.00
6829;BME280;17930;48.592;8.868;2022-10-16T04:23:29;96633.28;;;14.70;100.00
6829;BME280;17930;48.592;8.868;2022-10-16T04:25:56;96631.63;;;14.74;100.00
6829;BME280;17930;48.592;8.868;2022-10-16T04:28:23;96634.16;;;14.79;100.00
6829;BME280;17930;48.592;8.868;2022-10-16T04:30:51;96636.78;;;14.57;100.00
6829;BME280;17930;48.592;8.868;2022-10-16T04:33:17;96631.28;;;14.67;100.00
6829;BME280;17930;48.592;8.868;2022-10-16T04:35:44;96642.50;;;14.59;100.00
6829;BME280;17930;48.592;8.868;2022-10-16T04:38:11;96644.75;;;14.74;100.00
6829;BME280;17930;48.592;8.868;2022-10-16T04:40:37;96644.03;;;14.82;100.00
6829;BME280;17930;48.592;8.868;2022-10-16T04:43:04;96646.31;;;14.75;100.00
6829;BME280;17930;48.592;8.868;2022-10-16T04:45:32;96659.69;;;14.65;100.00
6829;BME280;17930;48.592;8.868;2022-10-16T04:48:00;96671.69;;;14.58;100.00
6829;BME280;17930;48.592;8.868;2022-10-16T04:50:27;96661.25;;;14.66;100.00
6829;BME280;17930;48.592;8.868;2022-10-16T04:52:54;96668.94;;;14.63;100.00
6829;BME280;17930;48.592;8.868;2022-10-16T04:55:20;96671.75;;;14.66;100.00
6829;BME280;17930;48.592;8.868;2022-10-16T04:57:47;96670.56;;;14.72;100.00
6829;BME280;17930;48.592;8.868;2022-10-16T05:00:14;96668.38;;;14.74;100.00
6829;BME280;17930;48.592;8.868;2022-10-16T05:02:40;96667.19;;;14.80;100.00
6829;BME280;17930;48.592;8.868;2022-10-16T05:05:08;96667.25;;;14.67;100.00
6829;BME280;17930;48.592;8.868;2022-10-16T05:07:35;96666.50;;;14.66;100.00
6829;BME280;17930;48.592;8.868;2022-10-16T05:10:02;96667.47;;;14.35;100.00
6829;BME280;17930;48.592;8.868;2022-10-16T05:12:29;96666.16;;;14.24;100.00
6829;BME280;17930;48.592;8.868;2022-10-16T05:14:55;96667.84;;;14.42;100.00
6829;BME280;17930;48.592;8.868;2022-10-16T05:17:24;96660.63;;;14.47;100.00
6829;BME280;17930;48.592;8.868;2022-10-16T05:19:51;96668.63;;;14.42;100.00
6829;BME280;17930;48.592;8.868;2022-10-16T05:22:19;96669.31;;;14.48;100.00
6829;BME280;17930;48.592;8.868;2022-10-16T05:24:45;96675.69;;;14.55;100.00
6829;BME280;17930;48.592;8.868;2022-10-16T05:27:12;96668.72;;;14.37;100.00
6829;BME280;17930;48.592;8.868;2022-10-16T05:29:44;96687.81;;;14.30;100.00
6829;BME280;17930;48.592;8.868;2022-10-16T05:32:11;96686.69;;;14.09;100.00
6829;BME280;17930;48.592;8.868;2022-10-16T05:34:37;96683.00;;;14.10;100.00
6829;BME280;17930;48.592;8.868;2022-10-16T05:37:04;96686.69;;;14.09;100.00
6829;BME280;17930;48.592;8.868;2022-10-16T05:39:32;96690.16;;;14.18;100.00
6829;BME280;17930;48.592;8.868;2022-10-16T05:41:59;96690.97;;;14.18;100.00
6829;BME280;17930;48.592;8.868;2022-10-16T05:44:26;96688.75;;;13.98;100.00
6829;BME280;17930;48.592;8.868;2022-10-16T05:46:52;96696.81;;;13.88;100.00
6829;BME280;17930;48.592;8.868;2022-10-16T05:49:19;96709.03;;;13.80;100.00
6829;BME280;17930;48.592;8.868;2022-10-16T05:51:46;96717.78;;;13.75;100.00
6829;BME280;17930;48.592;8.868;2022-10-16T05:54:13;96719.94;;;13.73;100.00
6829;BME280;17930;48.592;8.868;2022-10-16T05:56:41;96722.16;;;13.80;100.00
6829;BME280;17930;48.592;8.868;2022-10-16T05:59:07;96720.31;;;13.80;100.00
6829;BME280;17930;48.592;8.868;2022-10-16T06:01:34;96712.44;;;13.80;100.00
6829;BME280;17930;48.592;8.868;2022-10-16T06:04:01;96716.03;;;14.11;100.00
6829;BME280;17930;48.592;8.868;2022-10-16T06:06:28;96707.25;;;14.29;100.00
6829;BME280;17930;48.592;8.868;2022-10-16T06:08:56;96714.56;;;14.53;100.00
6829;BME280;17930;48.592;8.868;2022-10-16T06:11:27;96712.81;;;14.49;100.00
6829;BME280;17930;48.592;8.868;2022-10-16T06:13:57;96724.06;;;14.63;100.00
6829;BME280;17930;48.592;8.868;2022-10-16T06:16:26;96706.41;;;14.77;100.00
6829;BME280;17930;48.592;8.868;2022-10-16T06:18:53;96712.69;;;14.89;100.00
6829;BME280;17930;48.592;8.868;2022-10-16T06:21:22;96706.59;;;15.02;100.00
6829;BME280;17930;48.592;8.868;2022-10-16T06:23:51;96708.47;;;15.10;100.00
6829;BME280;17930;48.592;8.868;2022-10-16T06:26:19;96712.53;;;15.16;100.00
6829;BME280;17930;48.592;8.868;2022-10-16T06:28:46;96719.47;;;15.34;100.00
6829;BME280;17930;48.592;8.868;2022-10-16T06:31:15;96729.63;;;15.27;100.00
6829;BME280;17930;48.592;8.868;2022-10-16T06:33:42;96735.72;;;15.36;100.00
6829;BME280;17930;48.592;8.868;2022-10-16T06:36:10;96738.97;;;15.33;100.00
6829;BME280;17930;48.592;8.868;2022-10-16T06:38:38;96737.41;;;15.32;100.00
6829;BME280;17930;48.592;8.868;2022-10-16T06:41:06;96732.09;;;15.53;100.00
6829;BME280;17930;48.592;8.868;2022-10-16T06:43:33;96748.59;;;15.45;100.00
6829;BME280;17930;48.592;8.868;2022-10-16T06:46:01;96748.22;;;15.30;100.00
6829;BME280;17930;48.592;8.868;2022-10-16T06:48:30;96746.78;;;15.54;100.00
6829;BME280;17930;48.592;8.868;2022-10-16T06:50:58;96747.06;;;15.44;100.00
6829;BME280;17930;48.592;8.868;2022-10-16T06:53:26;96755.31;;;15.60;100.00
6829;BME280;17930;48.592;8.868;2022-10-16T06:55:53;96759.47;;;15.52;100.00
6829;BME280;17930;48.592;8.868;2022-10-16T06:58:20;96755.38;;;15.68;100.00
6829;BME280;17930;48.592;8.868;2022-10-16T07:00:47;96766.00;;;15.63;100.00
6829;BME280;17930;48.592;8.868;2022-10-16T07:03:14;96768.41;;;15.82;100.00
6829;BME280;17930;48.592;8.868;2022-10-16T07:05:42;96786.00;;;16.11;100.00
6829;BME280;17930;48.592;8.868;2022-10-16T07:08:09;96791.03;;;16.30;100.00
6829;BME280;17930;48.592;8.868;2022-10-16T07:10:36;96792.59;;;16.31;100.00
6829;BME280;17930;48.592;8.868;2022-10-16T07:13:03;96794.81;;;16.62;100.00
6829;BME280;17930;48.592;8.868;2022-10-16T07:15:29;96788.66;;;16.75;100.00
6829;BME280;17930;48.592;8.868;2022-10-16T07:17:56;96790.38;;;16.71;100.00
6829;BME280;17930;48.592;8.868;2022-10-16T07:20:23;96811.72;;;16.61;100.00
6829;BME280;17930;48.592;8.868;2022-10-16T07:22:51;96809.09;;;16.61;100.00
6829;BME280;17930;48.592;8.868;2022-10-16T07:25:18;96812.69;;;16.65;100.00
6829;BME280;17930;48.592;8.868;2022-10-16T07:27:45;96812.97;;;16.81;100.00
6829;BME280;17930;48.592;8.868;2022-10-16T07:30:12;96810.34;;;17.06;100.00
6829;BME280;17930;48.592;8.868;2022-10-16T07:32:38;96816.41;;;16.98;100.00
6829;BME280;17930;48.592;8.868;2022-10-16T07:35:06;96813.28;;;16.88;100.00
6829;BME280;17930;48.592;8.868;2022-10-16T07:37:33;96822.16;;;17.00;100.00
6829;BME280;17930;48.592;8.868;2022-10-16T07:40:01;96826.34;;;17.18;100.00
6829;BME280;17930;48.592;8.868;2022-10-16T07:42:27;96827.88;;;17.44;100.00
6829;BME280;17930;48.592;8.868;2022-10-16T07:44:54;96836.44;;;17.33;100.00
6829;BME280;17930;48.592;8.868;2022-10-16T07:47:21;96840.78;;;17.29;100.00
6829;BME280;17930;48.592;8.868;2022-10-16T07:49:48;96840.47;;;17.22;100.00
6829;BME280;17930;48.592;8.868;2022-10-16T07:52:14;96842.97;;;17.35;100.00
6829;BME280;17930;48.592;8.868;2022-10-16T07:54:41;96844.97;;;17.30;100.00
6829;BME280;17930;48.592;8.868;2022-10-16T07:57:09;96854.91;;;17.33;100.00
6829;BME280;17930;48.592;8.868;2022-10-16T07:59:36;96862.34;;;17.39;100.00
6829;BME280;17930;48.592;8.868;2022-10-16T08:02:02;96864.81;;;17.44;100.00
6829;BME280;17930;48.592;8.868;2022-10-16T08:04:29;96858.13;;;17.63;100.00
6829;BME280;17930;48.592;8.868;2022-10-16T08:06:56;96861.19;;;17.82;100.00
6829;BME280;17930;48.592;8.868;2022-10-16T08:09:23;96859.78;;;17.93;100.00
6829;BME280;17930;48.592;8.868;2022-10-16T08:11:49;96857.41;;;18.17;100.00
6829;BME280;17930;48.592;8.868;2022-10-16T08:14:19;96853.19;;;18.24;100.00
6829;BME280;17930;48.592;8.868;2022-10-16T08:16:46;96857.22;;;18.13;100.00
6829;BME280;17930;48.592;8.868;2022-10-16T08:19:12;96859.72;;;18.10;100.00
6829;BME280;17930;48.592;8.868;2022-10-16T08:21:41;96862.69;;;18.17;100.00
6829;BME280;17930;48.592;8.868;2022-10-16T08:24:07;96863.44;;;18.17;100.00
6829;BME280;17930;48.592;8.868;2022-10-16T08:26:34;96871.69;;;18.16;100.00
6829;BME280;17930;48.592;8.868;2022-10-16T08:29:01;96873.25;;;18.17;100.00
6829;BME280;17930;48.592;8.868;2022-10-16T08:31:30;96874.56;;;18.40;100.00
6829;BME280;17930;48.592;8.868;2022-10-16T08:34:00;96873.56;;;18.15;100.00
6829;BME280;17930;48.592;8.868;2022-10-16T08:36:27;96875.72;;;18.05;100.00
6829;BME280;17930;48.592;8.868;2022-10-16T08:38:54;96875.25;;;18.20;100.00
6829;BME280;17930;48.592;8.868;2022-10-16T08:42:01;96891.19;;;18.32;100.00
6829;BME280;17930;48.592;8.868;2022-10-16T08:45:10;96880.97;;;18.22;100.00
6829;BME280;17930;48.592;8.868;2022-10-16T08:47:55;96887.19;;;18.26;100.00
6829;BME280;17930;48.592;8.868;2022-10-16T08:50:32;96895.59;;;18.28;100.00
6829;BME280;17930;48.592;8.868;2022-10-16T08:52:59;96901.94;;;18.35;100.00
6829;BME280;17930;48.592;8.868;2022-10-16T08:55:32;96897.78;;;18.54;100.00
6829;BME280;17930;48.592;8.868;2022-10-16T08:58:01;96896.94;;;18.71;100.00
6829;BME280;17930;48.592;8.868;2022-10-16T09:00:28;96905.84;;;18.66;100.00
6829;BME280;17930;48.592;8.868;2022-10-16T09:03:04;96907.28;;;18.55;100.00
6829;BME280;17930;48.592;8.868;2022-10-16T09:06:01;96918.00;;;18.88;100.00
6829;BME280;17930;48.592;8.868;2022-10-16T09:08:36;96909.09;;;19.21;100.00
6829;BME280;17930;48.592;8.868;2022-10-16T09:11:14;96917.81;;;19.82;100.00
6829;BME280;17930;48.592;8.868;2022-10-16T09:13:49;96923.91;;;20.15;100.00
6829;BME280;17930;48.592;8.868;2022-10-16T09:16:24;96915.78;;;21.39;100.00
6829;BME280;17930;48.592;8.868;2022-10-16T09:19:00;96921.94;;;22.67;100.00
6829;BME280;17930;48.592;8.868;2022-10-16T09:21:35;96920.06;;;22.67;100.00
6829;BME280;17930;48.592;8.868;2022-10-16T09:24:10;96911.97;;;22.79;100.00
6829;BME280;17930;48.592;8.868;2022-10-16T09:26:40;96919.72;;;22.84;100.00
6829;BME280;17930;48.592;8.868;2022-10-16T09:29:10;96929.66;;;23.18;100.00
6829;BME280;17930;48.592;8.868;2022-10-16T09:31:38;96932.09;;;22.62;100.00
6829;BME280;17930;48.592;8.868;2022-10-16T09:34:06;96930.53;;;22.61;100.00
6829;BME280;17930;48.592;8.868;2022-10-16T09:36:41;96927.09;;;22.45;100.00
6829;BME280;17930;48.592;8.868;2022-10-16T09:39:10;96920.06;;;24.04;100.00
6829;BME280;17930;48.592;8.868;2022-10-16T09:41:38;96922.13;;;26.13;100.00
6829;BME280;17930;48.592;8.868;2022-10-16T09:44:18;96932.25;;;27.77;100.00
6829;BME280;17930;48.592;8.868;2022-10-16T09:46:47;96934.06;;;27.02;100.00
6829;BME280;17930;48.592;8.868;2022-10-16T09:49:23;96937.38;;;26.42;100.00
6829;BME280;17930;48.592;8.868;2022-10-16T09:51:51;96934.41;;;26.54;100.00
6829;BME280;17930;48.592;8.868;2022-10-16T09:54:28;96935.03;;;27.30;100.00
6829;BME280;17930;48.592;8.868;2022-10-16T09:57:04;96941.69;;;28.31;100.00
6829;BME280;17930;48.592;8.868;2022-10-16T09:59:31;96939.25;;;27.98;100.00
6829;BME280;17930;48.592;8.868;2022-10-16T10:02:01;96948.44;;;27.97;100.00
6829;BME280;17930;48.592;8.868;2022-10-16T10:04:48;96955.47;;;25.90;100.00
6829;BME280;17930;48.592;8.868;2022-10-16T10:07:18;96957.13;;;25.17;100.00
6829;BME280;17930;48.592;8.868;2022-10-16T10:09:46;96958.72;;;24.55;100.00
6829;BME280;17930;48.592;8.868;2022-10-16T10:12:21;96952.91;;;25.16;100.00
6829;BME280;17930;48.592;8.868;2022-10-16T10:14:49;96944.56;;;27.21;100.00
6829;BME280;17930;48.592;8.868;2022-10-16T10:17:19;96948.16;;;27.45;100.00
6829;BME280;17930;48.592;8.868;2022-10-16T10:19:50;96946.94;;;27.36;100.00
6829;BME280;17930;48.592;8.868;2022-10-16T10:22:21;96945.59;;;29.24;100.00
6829;BME280;17930;48.592;8.868;2022-10-16T10:24:56;96930.25;;;30.95;98.75
6829;BME280;17930;48.592;8.868;2022-10-16T10:27:32;96926.78;;;31.38;82.88
6829;BME280;17930;48.592;8.868;2022-10-16T10:30:06;96935.28;;;30.32;87.64
6829;BME280;17930;48.592;8.868;2022-10-16T10:32:41;96931.03;;;31.35;87.19
6829;BME280;17930;48.592;8.868;2022-10-16T10:35:19;96926.97;;;31.20;88.55
6829;BME280;17930;48.592;8.868;2022-10-16T10:38:02;96924.84;;;31.75;78.59
6829;BME280;17930;48.592;8.868;2022-10-16T10:40:45;96920.09;;;32.45;77.11
6829;BME280;17930;48.592;8.868;2022-10-16T10:43:31;96927.97;;;31.73;77.70
6829;BME280;17930;48.592;8.868;2022-10-16T10:46:10;96932.09;;;31.08;77.88
6829;BME280;17930;48.592;8.868;2022-10-16T10:48:57;96930.69;;;32.07;77.55
6829;BME280;17930;48.592;8.868;2022-10-16T10:51:33;96936.59;;;32.24;72.29
6829;BME280;17930;48.592;8.868;2022-10-16T10:54:14;96925.66;;;31.72;75.77
6829;BME280;17930;48.592;8.868;2022-10-16T10:56:47;96920.38;;;31.21;78.79
6829;BME280;17930;48.592;8.868;2022-10-16T10:59:30;96927.91;;;29.54;84.16
6829;BME280;17930;48.592;8.868;2022-10-16T11:02:00;96921.00;;;29.39;91.09
6829;BME280;17930;48.592;8.868;2022-10-16T11:04:41;96919.88;;;28.95;95.30
6829;BME280;17930;48.592;8.868;2022-10-16T11:07:17;96926.75;;;28.58;98.36
6829;BME280;17930;48.592;8.868;2022-10-16T11:09:48;96929.34;;;28.16;100.00
6829;BME280;17930;48.592;8.868;2022-10-16T11:12:19;96927.63;;;27.70;100.00
6829;BME280;17930;48.592;8.868;2022-10-16T11:14:51;96924.75;;;28.13;100.00
6829;BME280;17930;48.592;8.868;2022-10-16T11:17:23;96917.59;;;30.27;98.58
6829;BME280;17930;48.592;8.868;2022-10-16T11:19:55;96901.09;;;32.52;82.54
6829;BME280;17930;48.592;8.868;2022-10-16T11:22:30;96897.00;;;33.97;70.60
6829;BME280;17930;48.592;8.868;2022-10-16T11:25:04;96895.94;;;33.91;68.16
6829;BME280;17930;48.592;8.868;2022-10-16T11:28:00;96904.56;;;32.26;72.59
6829;BME280;17930;48.592;8.868;2022-10-16T11:30:29;96905.03;;;31.55;71.76
6829;BME280;17930;48.592;8.868;2022-10-16T11:33:04;96908.97;;;31.47;72.62
6829;BME280;17930;48.592;8.868;2022-10-16T11:35:41;96903.34;;;31.68;71.45
6829;BME280;17930;48.592;8.868;2022-10-16T11:38:15;96888.53;;;33.33;72.67
6829;BME280;17930;48.592;8.868;2022-10-16T11:40:48;96889.63;;;34.32;63.83
6829;BME280;17930;48.592;8.868;2022-10-16T11:43:22;96877.59;;;34.33;62.08
6829;BME280;17930;48.592;8.868;2022-10-16T11:45:54;96889.97;;;33.99;58.35
6829;BME280;17930;48.592;8.868;2022-10-16T11:48:26;96876.97;;;34.77;56.51
6829;BME280;17930;48.592;8.868;2022-10-16T11:51:11;96870.25;;;35.57;51.56
6829;BME280;17930;48.592;8.868;2022-10-16T11:53:56;96884.97;;;32.94;53.52
6829;BME280;17930;48.592;8.868;2022-10-16T11:56:24;96871.53;;;33.33;53.97
6829;BME280;17930;48.592;8.868;2022-10-16T11:58:56;96891.81;;;31.27;58.38
6829;BME280;17930;48.592;8.868;2022-10-16T12:01:30;96892.16;;;30.35;62.75
6829;BME280;17930;48.592;8.868;2022-10-16T12:04:06;96884.91;;;29.26;68.07
6829;BME280;17930;48.592;8.868;2022-10-16T12:06:41;96895.50;;;27.91;77.46
6829;BME280;17930;48.592;8.868;2022-10-16T12:09:15;96896.00;;;27.29;79.28
6829;BME280;17930;48.592;8.868;2022-10-16T12:11:49;96898.16;;;27.10;85.45
6829;BME280;17930;48.592;8.868;2022-10-16T12:14:22;96902.66;;;26.95;89.75
6829;BME280;17930;48.592;8.868;2022-10-16T12:17:01;96906.00;;;27.46;87.46
6829;BME280;17930;48.592;8.868;2022-10-16T12:19:31;96890.88;;;27.78;85.23
6829;BME280;17930;48.592;8.868;2022-10-16T12:22:00;96902.91;;;27.37;86.62
6829;BME280;17930;48.592;8.868;2022-10-16T12:24:33;96906.31;;;27.27;87.18
6829;BME280;17930;48.592;8.868;2022-10-16T12:27:01;96898.00;;;28.55;79.52
6829;BME280;17930;48.592;8.868;2022-10-16T12:29:33;96892.31;;;30.11;72.80
6829;BME280;17930;48.592;8.868;2022-10-16T12:32:00;96887.38;;;31.10;67.23
6829;BME280;17930;48.592;8.868;2022-10-16T12:34:31;96880.34;;;32.46;62.28
6829;BME280;17930;48.592;8.868;2022-10-16T12:37:11;96865.22;;;33.39;58.50
6829;BME280;17930;48.592;8.868;2022-10-16T12:39:41;96866.41;;;33.77;56.60
6829;BME280;17930;48.592;8.868;2022-10-16T12:42:22;96862.16;;;33.37;56.78
6829;BME280;17930;48.592;8.868;2022-10-16T12:44:49;96871.03;;;31.24;59.33
6829;BME280;17930;48.592;8.868;2022-10-16T12:47:21;96878.84;;;32.15;62.11
6829;BME280;17930;48.592;8.868;2022-10-16T12:49:50;96879.34;;;32.07;63.67
6829;BME280;17930;48.592;8.868;2022-10-16T12:52:28;96877.50;;;32.00;64.15
6829;BME280;17930;48.592;8.868;2022-10-16T12:54:58;96875.06;;;32.62;63.48
6829;BME280;17930;48.592;8.868;2022-10-16T12:57:38;96872.00;;;33.09;62.03
6829;BME280;17930;48.592;8.868;2022-10-16T13:00:16;96885.88;;;32.35;60.94
6829;BME280;17930;48.592;8.868;2022-10-16T13:03:11;96888.59;;;31.39;64.40
6829;BME280;17930;48.592;8.868;2022-10-16T13:05:57;96889.50;;;31.66;67.14
6829;BME280;17930;48.592;8.868;2022-10-16T13:08:39;96885.66;;;31.63;65.95
6829;BME280;17930;48.592;8.868;2022-10-16T13:11:17;96886.69;;;30.49;66.32
6829;BME280;17930;48.592;8.868;2022-10-16T13:14:03;96889.25;;;30.70;66.86
6829;BME280;17930;48.592;8.868;2022-10-16T13:16:44;96890.31;;;31.93;66.01
6829;BME280;17930;48.592;8.868;2022-10-16T13:19:20;96894.53;;;31.94;64.68